createdAt,value
2022-08-27T00:00:45.611Z,19.04
2022-08-27T00:01:42.453Z,18.69
2022-08-27T00:02:39.249Z,18.83
2022-08-27T00:03:37.226Z,19.05
2022-08-27T00:04:35.764Z,19.10
2022-08-27T00:05:32.588Z,19.03
2022-08-27T00:06:29.513Z,18.87
2022-08-27T00:07:26.257Z,19.00
2022-08-27T00:08:23.009Z,18.93
2022-08-27T00:09:21.086Z,18.56
2022-08-27T00:10:26.795Z,18.84
2022-08-27T00:11:27.354Z,18.78
2022-08-27T00:12:24.178Z,18.62
2022-08-27T00:13:20.941Z,18.46
2022-08-27T00:14:17.882Z,18.54
2022-08-27T00:15:17.838Z,18.40
2022-08-27T00:16:16.547Z,18.19
2022-08-27T00:17:13.515Z,18.01
2022-08-27T00:18:10.611Z,18.16
2022-08-27T00:19:07.486Z,18.18
2022-08-27T00:20:06.242Z,18.19
2022-08-27T00:21:04.139Z,18.23
2022-08-27T00:22:05.952Z,18.20
2022-08-27T00:23:02.674Z,18.13
2022-08-27T00:23:59.940Z,18.58
2022-08-27T00:24:56.634Z,18.70
2022-08-27T00:25:53.471Z,18.58
2022-08-27T00:26:53.400Z,17.49
2022-08-27T00:27:50.608Z,18.62
2022-08-27T00:28:48.416Z,18.62
2022-08-27T00:29:46.440Z,18.28
2022-08-27T00:30:43.755Z,18.67
2022-08-27T00:31:40.531Z,18.64
2022-08-27T00:32:38.665Z,18.74
2022-08-27T00:33:36.184Z,18.73
2022-08-27T00:34:32.946Z,18.56
2022-08-27T00:35:29.955Z,18.12
2022-08-27T00:36:26.920Z,18.14
2022-08-27T00:37:23.661Z,18.26
2022-08-27T00:38:22.933Z,18.33
2022-08-27T00:39:20.645Z,18.22
2022-08-27T00:40:21.213Z,18.21
2022-08-27T00:41:19.223Z,18.04
2022-08-27T00:42:16.063Z,18.09
2022-08-27T00:43:13.499Z,17.93
2022-08-27T00:44:10.718Z,17.71
2022-08-27T00:45:08.793Z,18.01
2022-08-27T00:46:16.439Z,18.22
2022-08-27T00:47:17.649Z,18.19
2022-08-27T00:48:18.760Z,18.16
2022-08-27T00:49:26.606Z,18.17
2022-08-27T00:50:40.114Z,18.19
2022-08-27T00:51:38.928Z,18.04
2022-08-27T00:53:01.924Z,17.86
2022-08-27T00:53:59.760Z,17.53
2022-08-27T00:55:06.385Z,17.91
2022-08-27T00:56:17.169Z,18.09
2022-08-27T00:57:15.871Z,17.69
2022-08-27T00:58:42.031Z,18.08
2022-08-27T00:59:42.481Z,17.76
2022-08-27T01:00:39.443Z,17.75
2022-08-27T01:01:56.291Z,17.72
2022-08-27T01:02:53.146Z,18.02
2022-08-27T01:03:54.589Z,18.04
2022-08-27T01:04:58.800Z,17.80
2022-08-27T01:06:00.142Z,18.07
2022-08-27T01:06:58.797Z,18.24
2022-08-27T01:08:02.147Z,18.29
2022-08-27T01:09:07.822Z,18.27
2022-08-27T01:10:10.361Z,18.08
2022-08-27T01:11:07.544Z,18.08
2022-08-27T01:12:04.945Z,18.20
2022-08-27T01:13:02.080Z,17.90
2022-08-27T01:14:02.386Z,18.06
2022-08-27T01:15:03.357Z,17.73
2022-08-27T01:16:01.331Z,17.76
2022-08-27T01:17:02.616Z,18.16
2022-08-27T01:18:00.576Z,18.42
2022-08-27T01:19:00.926Z,18.40
2022-08-27T01:20:03.892Z,18.41
2022-08-27T01:21:38.143Z,18.68
2022-08-27T01:22:48.888Z,18.58
2022-08-27T01:23:59.381Z,18.30
2022-08-27T01:25:00.983Z,17.97
2022-08-27T01:26:00.265Z,18.44
2022-08-27T01:26:59.500Z,18.20
2022-08-27T01:28:03.228Z,18.16
2022-08-27T01:29:00.969Z,17.82
2022-08-27T01:29:58.879Z,17.98
2022-08-27T01:30:55.993Z,17.94
2022-08-27T01:31:53.266Z,18.02
2022-08-27T01:32:51.356Z,17.31
2022-08-27T01:33:56.806Z,18.18
2022-08-27T01:34:54.358Z,18.07
2022-08-27T01:35:52.303Z,18.21
2022-08-27T01:36:49.060Z,17.89
2022-08-27T01:37:49.616Z,18.19
2022-08-27T01:38:49.090Z,17.89
2022-08-27T01:39:45.925Z,18.08
2022-08-27T01:40:45.681Z,18.10
2022-08-27T01:41:42.647Z,17.13
2022-08-27T01:42:43.195Z,17.66
2022-08-27T01:43:39.908Z,17.91
2022-08-27T01:45:06.828Z,18.14
2022-08-27T01:46:03.548Z,16.90
2022-08-27T01:47:00.417Z,17.98
2022-08-27T01:47:59.305Z,17.86
2022-08-27T01:48:56.601Z,17.52
2022-08-27T01:49:53.946Z,17.77
2022-08-27T01:50:50.708Z,17.90
2022-08-27T01:51:47.505Z,17.79
2022-08-27T01:52:44.984Z,18.05
2022-08-27T01:53:41.742Z,17.97
2022-08-27T01:54:39.329Z,17.34
2022-08-27T01:55:36.175Z,18.03
2022-08-27T01:56:32.908Z,17.88
2022-08-27T01:57:29.715Z,17.79
2022-08-27T01:58:29.439Z,17.97
2022-08-27T01:59:26.491Z,18.06
2022-08-27T02:00:41.417Z,17.85
2022-08-27T02:01:38.372Z,17.81
2022-08-27T02:02:35.872Z,17.52
2022-08-27T02:03:34.508Z,17.47
2022-08-27T02:04:31.799Z,17.77
2022-08-27T02:05:30.045Z,17.79
2022-08-27T02:06:26.836Z,17.71
2022-08-27T02:07:23.696Z,17.88
2022-08-27T02:08:20.654Z,17.61
2022-08-27T02:09:17.910Z,17.91
2022-08-27T02:10:19.741Z,17.76
2022-08-27T02:11:16.459Z,17.41
2022-08-27T02:12:13.252Z,17.73
2022-08-27T02:13:10.531Z,17.78
2022-08-27T02:14:12.891Z,17.70
2022-08-27T02:15:10.997Z,17.49
2022-08-27T02:16:07.900Z,17.20
2022-08-27T02:17:04.808Z,17.81
2022-08-27T02:18:02.146Z,17.63
2022-08-27T02:19:00.387Z,17.98
2022-08-27T02:19:57.332Z,17.62
2022-08-27T02:20:54.096Z,17.87
2022-08-27T02:21:50.954Z,17.63
2022-08-27T02:22:48.380Z,17.96
2022-08-27T02:23:45.475Z,17.86
2022-08-27T02:24:42.457Z,17.32
2022-08-27T02:25:40.873Z,17.27
2022-08-27T02:26:38.014Z,17.70
2022-08-27T02:27:34.785Z,17.91
2022-08-27T02:28:31.564Z,17.64
2022-08-27T02:29:28.308Z,17.82
2022-08-27T02:30:25.245Z,17.71
2022-08-27T02:31:22.876Z,17.55
2022-08-27T02:32:27.668Z,17.49
2022-08-27T02:33:28.713Z,17.54
2022-08-27T02:34:25.500Z,17.53
2022-08-27T02:35:24.726Z,17.34
2022-08-27T02:36:21.518Z,17.10
2022-08-27T02:37:18.262Z,17.45
2022-08-27T02:38:15.021Z,17.52
2022-08-27T02:39:11.732Z,17.66
2022-08-27T02:40:09.755Z,17.86
2022-08-27T02:41:06.730Z,17.88
2022-08-27T02:42:03.683Z,17.69
2022-08-27T02:43:00.438Z,17.49
2022-08-27T02:43:57.395Z,17.46
2022-08-27T02:44:57.873Z,17.62
2022-08-27T02:45:54.621Z,17.38
2022-08-27T02:46:52.171Z,17.62
2022-08-27T02:47:50.575Z,17.74
2022-08-27T02:48:47.334Z,17.05
2022-08-27T02:49:44.721Z,17.91
2022-08-27T02:50:42.126Z,17.58
2022-08-27T02:51:39.081Z,17.83
2022-08-27T02:52:36.636Z,17.74
2022-08-27T02:53:37.786Z,17.58
2022-08-27T02:54:35.023Z,17.90
2022-08-27T02:55:33.485Z,17.60
2022-08-27T02:56:30.255Z,17.22
2022-08-27T02:57:27.379Z,17.46
2022-08-27T02:58:24.902Z,17.45
2022-08-27T02:59:22.302Z,17.53
2022-08-27T03:00:21.077Z,17.89
2022-08-27T03:01:17.832Z,17.81
2022-08-27T03:02:14.834Z,17.46
2022-08-27T03:03:11.822Z,17.68
2022-08-27T03:04:08.522Z,17.25
2022-08-27T03:05:06.840Z,16.48
2022-08-27T03:06:03.692Z,17.13
2022-08-27T03:07:00.476Z,16.89
2022-08-27T03:07:59.416Z,17.07
2022-08-27T03:08:56.181Z,17.59
2022-08-27T03:09:52.989Z,17.69
2022-08-27T03:10:50.567Z,17.42
2022-08-27T03:11:47.731Z,17.27
2022-08-27T03:12:44.588Z,16.90
2022-08-27T03:13:41.318Z,16.98
2022-08-27T03:14:38.057Z,17.06
2022-08-27T03:15:34.993Z,16.75
2022-08-27T03:16:35.421Z,16.81
2022-08-27T03:17:50.512Z,16.59
2022-08-27T03:18:47.279Z,16.45
2022-08-27T03:19:44.090Z,16.85
2022-08-27T03:20:44.496Z,16.37
2022-08-27T03:21:41.293Z,16.81
2022-08-27T03:22:40.285Z,17.03
2022-08-27T03:23:37.032Z,17.45
2022-08-27T03:24:34.411Z,17.31
2022-08-27T03:25:31.258Z,17.60
2022-08-27T03:26:31.904Z,17.02
2022-08-27T03:27:28.671Z,16.45
2022-08-27T03:28:29.154Z,17.41
2022-08-27T03:29:25.893Z,17.56
2022-08-27T03:30:24.006Z,17.61
2022-08-27T03:31:28.386Z,17.22
2022-08-27T03:32:25.140Z,17.00
2022-08-27T03:33:22.330Z,16.51
2022-08-27T03:34:19.767Z,16.56
2022-08-27T03:35:19.560Z,16.71
2022-08-27T03:36:16.435Z,17.09
2022-08-27T03:37:13.150Z,17.26
2022-08-27T03:38:10.071Z,17.42
2022-08-27T03:39:06.948Z,17.37
2022-08-27T03:40:05.436Z,17.38
2022-08-27T03:41:06.268Z,17.22
2022-08-27T03:42:03.543Z,17.08
2022-08-27T03:43:00.390Z,17.01
2022-08-27T03:43:57.135Z,17.12
2022-08-27T03:44:53.894Z,17.04
2022-08-27T03:46:00.549Z,16.87
2022-08-27T03:47:00.021Z,16.44
2022-08-27T03:47:56.818Z,16.66
2022-08-27T03:48:53.855Z,15.97
2022-08-27T03:49:54.233Z,16.53
2022-08-27T03:50:51.598Z,16.70
2022-08-27T03:51:52.590Z,16.13
2022-08-27T03:52:49.853Z,16.38
2022-08-27T03:53:47.189Z,16.62
2022-08-27T03:54:43.953Z,16.41
2022-08-27T03:55:42.566Z,16.50
2022-08-27T03:56:40.882Z,16.57
2022-08-27T03:57:37.626Z,16.25
2022-08-27T03:58:35.745Z,16.69
2022-08-27T03:59:33.353Z,16.52
2022-08-27T04:00:30.214Z,16.68
2022-08-27T04:01:27.056Z,16.80
2022-08-27T04:02:24.032Z,17.15
2022-08-27T04:03:20.829Z,17.34
2022-08-27T04:04:17.613Z,17.39
2022-08-27T04:05:14.602Z,16.96
2022-08-27T04:06:11.389Z,17.01
2022-08-27T04:07:08.896Z,17.19
2022-08-27T04:08:06.755Z,17.21
2022-08-27T04:09:05.021Z,16.70
2022-08-27T04:10:01.764Z,17.13
2022-08-27T04:10:58.660Z,16.91
2022-08-27T04:11:55.876Z,15.96
2022-08-27T04:12:52.715Z,16.28
2022-08-27T04:13:51.920Z,16.78
2022-08-27T04:14:48.814Z,16.41
2022-08-27T04:15:48.590Z,16.71
2022-08-27T04:16:45.478Z,16.75
2022-08-27T04:17:42.927Z,16.77
2022-08-27T04:18:39.633Z,16.78
2022-08-27T04:19:36.757Z,16.82
2022-08-27T04:20:35.389Z,16.80
2022-08-27T04:21:33.773Z,16.71
2022-08-27T04:22:30.543Z,16.02
2022-08-27T04:23:27.274Z,17.05
2022-08-27T04:24:23.988Z,17.16
2022-08-27T04:25:20.761Z,17.48
2022-08-27T04:26:17.677Z,17.35
2022-08-27T04:27:15.962Z,17.32
2022-08-27T04:28:14.135Z,17.68
2022-08-27T04:29:10.870Z,17.70
2022-08-27T04:30:10.607Z,17.66
2022-08-27T04:31:08.561Z,17.36
2022-08-27T04:32:11.427Z,17.58
2022-08-27T04:33:08.331Z,17.66
2022-08-27T04:34:07.713Z,17.74
2022-08-27T04:35:05.639Z,17.73
2022-08-27T04:36:06.132Z,17.66
2022-08-27T04:37:04.181Z,17.45
2022-08-27T04:38:01.192Z,17.59
2022-08-27T04:38:57.898Z,17.90
2022-08-27T04:39:54.679Z,17.95
2022-08-27T04:41:09.897Z,17.93
2022-08-27T04:42:06.685Z,18.17
2022-08-27T04:43:03.434Z,18.22
2022-08-27T04:44:05.837Z,18.01
2022-08-27T04:45:03.090Z,17.82
2022-08-27T04:45:59.936Z,17.72
2022-08-27T04:46:59.605Z,17.72
2022-08-27T04:47:56.350Z,17.80
2022-08-27T04:48:53.821Z,17.60
2022-08-27T04:49:50.969Z,17.32
2022-08-27T04:50:48.073Z,17.86
2022-08-27T04:51:45.793Z,18.00
2022-08-27T04:52:42.602Z,17.01
2022-08-27T04:53:39.447Z,18.05
2022-08-27T04:54:36.743Z,17.87
2022-08-27T04:55:33.510Z,17.90
2022-08-27T04:56:31.324Z,18.20
2022-08-27T04:57:28.143Z,18.34
2022-08-27T04:58:26.216Z,18.66
2022-08-27T04:59:23.324Z,18.76
2022-08-27T05:00:20.173Z,18.57
2022-08-27T05:01:23.950Z,18.50
2022-08-27T05:02:20.746Z,18.34
2022-08-27T05:03:20.066Z,18.52
2022-08-27T05:04:19.081Z,18.61
2022-08-27T05:05:16.227Z,18.49
2022-08-27T05:06:13.747Z,18.30
2022-08-27T05:07:11.103Z,18.09
2022-08-27T05:08:09.603Z,18.35
2022-08-27T05:09:07.059Z,18.23
2022-08-27T05:10:03.902Z,18.17
2022-08-27T05:11:01.853Z,17.87
2022-08-27T05:11:58.683Z,18.57
2022-08-27T05:12:59.395Z,18.25
2022-08-27T05:13:56.841Z,18.73
2022-08-27T05:14:54.685Z,18.92
2022-08-27T05:16:02.891Z,19.07
2022-08-27T05:17:00.370Z,19.14
2022-08-27T05:18:00.642Z,18.23
2022-08-27T05:18:59.208Z,18.34
2022-08-27T05:19:55.941Z,19.09
2022-08-27T05:20:53.634Z,18.74
2022-08-27T05:21:53.229Z,18.69
2022-08-27T05:22:50.046Z,18.40
2022-08-27T05:23:47.673Z,18.37
2022-08-27T05:24:50.398Z,18.64
2022-08-27T05:25:50.780Z,18.89
2022-08-27T05:26:48.420Z,18.92
2022-08-27T05:27:45.175Z,18.89
2022-08-27T05:28:42.393Z,18.54
2022-08-27T05:29:39.122Z,17.97
2022-08-27T05:30:41.979Z,18.15
2022-08-27T05:31:40.114Z,18.80
2022-08-27T05:32:36.925Z,18.78
2022-08-27T05:33:34.176Z,18.89
2022-08-27T05:34:30.898Z,18.66
2022-08-27T05:35:28.754Z,18.82
2022-08-27T05:36:29.826Z,19.14
2022-08-27T05:37:27.092Z,19.14
2022-08-27T05:38:29.966Z,18.90
2022-08-27T05:39:26.679Z,19.30
2022-08-27T05:40:23.691Z,19.54
2022-08-27T05:41:25.648Z,19.44
2022-08-27T05:42:32.635Z,19.66
2022-08-27T05:43:29.369Z,19.93
2022-08-27T05:44:42.143Z,19.80
2022-08-27T05:45:44.226Z,20.30
2022-08-27T05:46:41.237Z,20.41
2022-08-27T05:47:44.898Z,20.41
2022-08-27T05:48:42.585Z,20.19
2022-08-27T05:49:39.321Z,20.64
2022-08-27T05:50:36.156Z,20.52
2022-08-27T05:51:35.173Z,20.59
2022-08-27T05:52:31.989Z,20.55
2022-08-27T05:53:28.716Z,20.66
2022-08-27T05:54:25.454Z,20.47
2022-08-27T05:55:22.203Z,20.18
2022-08-27T05:56:22.329Z,20.41
2022-08-27T05:57:19.077Z,20.67
2022-08-27T05:58:34.630Z,20.62
2022-08-27T05:59:50.182Z,20.44
2022-08-27T06:01:08.251Z,20.45
2022-08-27T06:02:07.766Z,20.59
2022-08-27T06:03:05.057Z,20.70
2022-08-27T06:04:03.168Z,20.93
2022-08-27T06:04:59.969Z,21.17
2022-08-27T06:06:07.781Z,21.16
2022-08-27T06:07:06.588Z,21.47
2022-08-27T06:08:03.582Z,21.67
2022-08-27T06:09:00.449Z,20.62
2022-08-27T06:09:58.930Z,20.21
2022-08-27T06:10:57.565Z,21.10
2022-08-27T06:11:55.638Z,21.18
2022-08-27T06:12:56.761Z,21.30
2022-08-27T06:13:53.815Z,21.21
2022-08-27T06:14:50.750Z,21.27
2022-08-27T06:15:47.506Z,21.45
2022-08-27T06:16:44.416Z,21.15
2022-08-27T06:17:41.425Z,21.24
2022-08-27T06:18:38.782Z,21.34
2022-08-27T06:19:36.511Z,21.20
2022-08-27T06:20:33.353Z,21.35
2022-08-27T06:21:30.882Z,21.56
2022-08-27T06:22:27.681Z,21.68
2022-08-27T06:23:27.883Z,20.77
2022-08-27T06:24:25.476Z,21.66
2022-08-27T06:25:22.209Z,21.73
2022-08-27T06:26:22.097Z,20.99
2022-08-27T06:27:20.435Z,21.59
2022-08-27T06:28:21.320Z,21.19
2022-08-27T06:29:18.028Z,21.35
2022-08-27T06:30:17.545Z,21.19
2022-08-27T06:31:18.596Z,21.74
2022-08-27T06:32:15.475Z,21.86
2022-08-27T06:33:12.225Z,21.59
2022-08-27T06:34:10.721Z,21.94
2022-08-27T06:35:07.814Z,21.70
2022-08-27T06:36:07.912Z,22.10
2022-08-27T06:37:04.897Z,21.96
2022-08-27T06:38:01.642Z,21.71
2022-08-27T06:38:59.850Z,22.01
2022-08-27T06:39:56.671Z,21.90
2022-08-27T06:40:54.015Z,21.28
2022-08-27T06:41:50.771Z,22.30
2022-08-27T06:42:47.563Z,21.90
2022-08-27T06:43:44.306Z,22.20
2022-08-27T06:44:42.196Z,22.23
2022-08-27T06:45:39.846Z,21.99
2022-08-27T06:46:38.675Z,21.65
2022-08-27T06:47:35.593Z,21.43
2022-08-27T06:48:33.170Z,21.78
2022-08-27T06:49:30.680Z,21.85
2022-08-27T06:50:27.593Z,22.12
2022-08-27T06:51:30.410Z,22.40
2022-08-27T06:52:27.255Z,22.13
2022-08-27T06:53:24.573Z,22.44
2022-08-27T06:54:21.449Z,21.96
2022-08-27T06:55:18.179Z,22.33
2022-08-27T06:56:17.578Z,22.26
2022-08-27T06:57:14.331Z,22.20
2022-08-27T06:58:12.643Z,22.23
2022-08-27T06:59:12.468Z,22.32
2022-08-27T07:00:10.111Z,22.34
2022-08-27T07:01:13.529Z,22.66
2022-08-27T07:02:11.205Z,22.65
2022-08-27T07:03:08.459Z,22.76
2022-08-27T07:04:08.477Z,22.96
2022-08-27T07:05:07.384Z,22.93
2022-08-27T07:06:07.567Z,23.06
2022-08-27T07:07:14.322Z,23.12
2022-08-27T07:08:24.802Z,22.94
2022-08-27T07:09:21.751Z,23.06
2022-08-27T07:10:18.518Z,23.12
2022-08-27T07:11:15.867Z,22.96
2022-08-27T07:12:12.610Z,23.20
2022-08-27T07:13:09.466Z,22.95
2022-08-27T07:14:07.645Z,23.00
2022-08-27T07:15:04.814Z,23.18
2022-08-27T07:16:11.219Z,23.13
2022-08-27T07:17:10.897Z,23.36
2022-08-27T07:18:12.624Z,23.06
2022-08-27T07:19:09.575Z,23.31
2022-08-27T07:20:08.193Z,23.35
2022-08-27T07:21:08.745Z,23.24
2022-08-27T07:22:05.655Z,23.48
2022-08-27T07:23:02.469Z,23.45
2022-08-27T07:24:04.843Z,23.52
2022-08-27T07:25:01.886Z,23.72
2022-08-27T07:25:59.609Z,23.62
2022-08-27T07:26:56.618Z,23.64
2022-08-27T07:27:54.621Z,23.45
2022-08-27T07:28:53.585Z,23.40
2022-08-27T07:29:50.410Z,23.81
2022-08-27T07:30:47.338Z,23.40
2022-08-27T07:31:44.231Z,23.61
2022-08-27T07:32:42.938Z,23.59
2022-08-27T07:33:42.086Z,23.64
2022-08-27T07:34:47.350Z,23.80
2022-08-27T07:35:45.645Z,23.84
2022-08-27T07:36:42.708Z,23.79
2022-08-27T07:37:41.237Z,23.62
2022-08-27T07:38:38.157Z,24.03
2022-08-27T07:39:35.032Z,23.38
2022-08-27T07:40:32.009Z,23.82
2022-08-27T07:41:32.828Z,23.90
2022-08-27T07:42:48.625Z,23.98
2022-08-27T07:44:06.913Z,24.23
2022-08-27T07:45:06.507Z,24.35
2022-08-27T07:46:04.291Z,24.31
2022-08-27T07:47:02.463Z,23.86
2022-08-27T07:47:59.244Z,24.24
2022-08-27T07:48:57.242Z,23.99
2022-08-27T07:49:54.000Z,23.99
2022-08-27T07:50:52.196Z,24.17
2022-08-27T07:51:50.710Z,24.29
2022-08-27T07:52:50.077Z,24.38
2022-08-27T07:53:47.773Z,24.56
2022-08-27T07:54:44.559Z,24.68
2022-08-27T07:55:41.331Z,24.69
2022-08-27T07:56:41.616Z,24.57
2022-08-27T07:57:38.944Z,24.72
2022-08-27T07:58:36.277Z,24.51
2022-08-27T07:59:33.163Z,24.39
2022-08-27T08:00:34.341Z,24.68
2022-08-27T08:01:31.890Z,24.91
2022-08-27T08:02:30.898Z,25.03
2022-08-27T08:03:31.499Z,25.27
2022-08-27T08:04:28.246Z,25.07
2022-08-27T08:05:25.199Z,25.42
2022-08-27T08:06:21.980Z,24.70
2022-08-27T08:07:18.726Z,25.42
2022-08-27T08:08:15.929Z,24.60
2022-08-27T08:09:12.711Z,25.35
2022-08-27T08:10:11.378Z,25.34
2022-08-27T08:11:15.555Z,25.25
2022-08-27T08:12:12.260Z,25.50
2022-08-27T08:13:09.141Z,25.47
2022-08-27T08:14:05.877Z,25.40
2022-08-27T08:15:04.890Z,25.43
2022-08-27T08:16:01.929Z,25.26
2022-08-27T08:17:03.123Z,25.37
2022-08-27T08:18:03.729Z,25.46
2022-08-27T08:19:00.564Z,25.19
2022-08-27T08:20:20.013Z,25.45
2022-08-27T08:21:17.110Z,25.30
2022-08-27T08:22:14.252Z,24.49
2022-08-27T08:23:10.962Z,25.49
2022-08-27T08:24:07.735Z,25.41
2022-08-27T08:25:05.604Z,25.71
2022-08-27T08:26:02.908Z,25.78
2022-08-27T08:27:02.782Z,24.98
2022-08-27T08:28:01.895Z,25.86
2022-08-27T08:29:00.701Z,25.84
2022-08-27T08:29:57.500Z,26.05
2022-08-27T08:30:54.753Z,25.60
2022-08-27T08:31:51.532Z,26.13
2022-08-27T08:32:48.638Z,26.04
2022-08-27T08:33:48.028Z,26.31
2022-08-27T08:34:44.762Z,26.31
2022-08-27T08:35:41.586Z,25.87
2022-08-27T08:36:38.327Z,26.35
2022-08-27T08:37:36.162Z,26.34
2022-08-27T08:38:33.325Z,26.17
2022-08-27T08:39:30.062Z,26.25
2022-08-27T08:40:42.590Z,26.31
2022-08-27T08:41:56.422Z,26.24
2022-08-27T08:42:56.593Z,26.48
2022-08-27T08:43:56.333Z,25.87
2022-08-27T08:44:55.233Z,25.89
2022-08-27T08:45:55.879Z,26.56
2022-08-27T08:46:59.760Z,26.51
2022-08-27T08:48:06.428Z,25.58
2022-08-27T08:49:34.861Z,26.06
2022-08-27T08:50:50.233Z,26.54
2022-08-27T08:51:47.028Z,26.48
2022-08-27T08:52:50.933Z,25.93
2022-08-27T08:53:59.693Z,26.64
2022-08-27T08:55:05.751Z,26.72
2022-08-27T08:56:07.876Z,26.42
2022-08-27T08:57:39.095Z,26.81
2022-08-27T08:58:38.796Z,26.66
2022-08-27T08:59:41.506Z,26.67
2022-08-27T09:00:40.294Z,26.85
2022-08-27T09:01:38.699Z,26.70
2022-08-27T09:02:35.470Z,26.91
2022-08-27T09:03:36.365Z,26.97
2022-08-27T09:04:33.545Z,26.98
2022-08-27T09:05:31.029Z,27.04
2022-08-27T09:06:39.812Z,26.80
2022-08-27T09:07:46.119Z,27.01
2022-08-27T09:08:44.722Z,26.65
2022-08-27T09:09:53.702Z,26.99
2022-08-27T09:11:05.181Z,26.93
2022-08-27T09:12:14.930Z,27.10
2022-08-27T09:15:00.103Z,27.30
2022-08-27T09:16:02.909Z,26.53
2022-08-27T09:17:10.688Z,27.25
2022-08-27T09:18:11.892Z,27.32
2022-08-27T09:19:13.197Z,27.42
2022-08-27T09:20:13.079Z,27.36
2022-08-27T09:21:28.553Z,27.61
2022-08-27T09:22:28.750Z,27.54
2022-08-27T09:23:45.602Z,27.58
2022-08-27T09:25:20.931Z,27.58
2022-08-27T09:26:29.097Z,27.47
2022-08-27T09:27:26.001Z,27.29
2022-08-27T09:28:49.353Z,27.19
2022-08-27T09:29:53.094Z,27.42
2022-08-27T09:30:49.827Z,27.41
2022-08-27T09:31:59.011Z,27.45
2022-08-27T09:33:04.807Z,27.32
2022-08-27T09:34:01.613Z,27.05
2022-08-27T09:35:05.378Z,27.22
2022-08-27T09:36:05.293Z,27.42
2022-08-27T09:37:08.113Z,27.52
2022-08-27T09:38:05.168Z,27.32
2022-08-27T09:39:06.789Z,26.86
2022-08-27T09:40:13.693Z,27.67
2022-08-27T09:41:26.119Z,27.55
2022-08-27T09:42:49.833Z,27.67
2022-08-27T09:43:58.237Z,27.82
2022-08-27T09:44:55.797Z,27.93
2022-08-27T09:46:02.115Z,27.70
2022-08-27T09:47:02.786Z,27.70
2022-08-27T09:48:15.050Z,28.09
2022-08-27T09:49:14.520Z,28.02
2022-08-27T09:50:11.318Z,27.98
2022-08-27T09:51:12.820Z,27.66
2022-08-27T09:52:30.673Z,28.33
2022-08-27T09:53:50.579Z,27.99
2022-08-27T09:54:48.636Z,27.77
2022-08-27T09:55:54.408Z,28.00
2022-08-27T09:56:52.911Z,28.04
2022-08-27T09:57:49.794Z,28.23
2022-08-27T09:59:10.233Z,28.34
2022-08-27T10:00:16.435Z,28.31
2022-08-27T10:01:24.763Z,28.44
2022-08-27T10:02:25.585Z,28.48
2022-08-27T10:03:22.705Z,28.23
2022-08-27T10:04:50.983Z,28.56
2022-08-27T10:05:50.752Z,28.39
2022-08-27T10:06:50.434Z,28.28
2022-08-27T10:07:55.467Z,28.53
2022-08-27T10:08:57.945Z,28.32
2022-08-27T10:10:11.047Z,28.50
2022-08-27T10:11:19.197Z,28.46
2022-08-27T10:12:28.387Z,28.58
2022-08-27T10:13:52.157Z,28.51
2022-08-27T10:14:57.826Z,28.53
2022-08-27T10:16:18.388Z,28.60
2022-08-27T10:17:28.230Z,28.58
2022-08-27T10:18:38.588Z,28.26
2022-08-27T10:19:50.097Z,28.52
2022-08-27T10:21:06.115Z,28.50
2022-08-27T10:22:17.751Z,28.38
2022-08-27T10:23:32.622Z,28.44
2022-08-27T10:24:49.165Z,28.74
2022-08-27T10:26:18.473Z,28.67
2022-08-27T10:27:21.978Z,28.57
2022-08-27T10:28:41.901Z,28.57
2022-08-27T10:29:50.172Z,27.67
2022-08-27T10:30:58.558Z,28.53
2022-08-27T10:32:31.259Z,28.27
2022-08-27T10:33:33.941Z,28.32
2022-08-27T10:34:54.423Z,28.21
2022-08-27T10:36:03.369Z,28.30
2022-08-27T10:37:23.873Z,28.34
2022-08-27T10:38:30.913Z,28.49
2022-08-27T10:39:40.283Z,28.51
2022-08-27T10:40:51.780Z,28.51
2022-08-27T10:42:02.858Z,27.61
2022-08-27T10:43:18.144Z,28.45
2022-08-27T10:44:29.750Z,28.57
2022-08-27T10:45:58.182Z,28.59
2022-08-27T10:47:22.782Z,28.38
2022-08-27T10:48:34.491Z,28.73
2022-08-27T10:50:05.599Z,28.83
2022-08-27T10:51:22.037Z,28.89
2022-08-27T10:52:27.037Z,28.70
2022-08-27T10:53:39.170Z,28.36
2022-08-27T10:54:53.706Z,28.72
2022-08-27T10:56:05.442Z,28.05
2022-08-27T10:57:45.540Z,28.91
2022-08-27T10:59:00.558Z,28.90
2022-08-27T11:00:13.005Z,28.85
2022-08-27T11:01:43.866Z,28.80
2022-08-27T11:02:54.000Z,28.14
2022-08-27T11:04:03.178Z,28.71
2022-08-27T11:05:09.712Z,28.80
2022-08-27T11:06:27.790Z,28.70
2022-08-27T11:07:30.734Z,28.80
2022-08-27T11:08:44.660Z,28.49
2022-08-27T11:09:56.627Z,28.70
2022-08-27T11:11:23.376Z,28.65
2022-08-27T11:12:27.013Z,28.82
2022-08-27T11:13:38.617Z,28.72
2022-08-27T11:14:45.341Z,28.27
2022-08-27T11:15:48.215Z,28.80
2022-08-27T11:16:52.320Z,28.71
2022-08-27T11:18:16.553Z,28.32
2022-08-27T11:19:31.474Z,29.01
2022-08-27T11:20:45.045Z,28.87
2022-08-27T11:21:51.771Z,28.29
2022-08-27T11:23:05.956Z,28.81
2022-08-27T11:24:35.197Z,28.41
2022-08-27T11:25:35.033Z,28.83
2022-08-27T11:26:35.224Z,28.84
2022-08-27T11:27:35.252Z,28.85
2022-08-27T11:28:39.781Z,28.70
2022-08-27T11:30:00.496Z,28.81
2022-08-27T11:31:06.126Z,28.83
2022-08-27T11:32:27.701Z,28.61
2022-08-27T11:33:46.481Z,28.60
2022-08-27T11:35:03.498Z,28.71
2022-08-27T11:36:29.705Z,28.84
2022-08-27T11:37:41.123Z,28.59
2022-08-27T11:39:08.607Z,28.75
2022-08-27T11:40:32.327Z,28.89
2022-08-27T11:41:47.924Z,29.03
2022-08-27T11:42:47.276Z,29.05
2022-08-27T11:43:45.172Z,29.14
2022-08-27T11:44:49.375Z,29.22
2022-08-27T11:46:07.189Z,29.05
2022-08-27T11:47:15.479Z,29.25
2022-08-27T11:48:21.060Z,29.31
2022-08-27T11:49:35.422Z,29.21
2022-08-27T11:50:32.319Z,29.16
2022-08-27T11:51:36.975Z,28.84
2022-08-27T11:52:40.325Z,29.31
2022-08-27T11:53:41.362Z,29.12
2022-08-27T11:54:56.171Z,29.33
2022-08-27T11:55:53.561Z,29.35
2022-08-27T11:56:52.044Z,29.06
2022-08-27T11:58:02.104Z,29.18
2022-08-27T11:59:12.184Z,29.41
2022-08-27T12:00:36.913Z,29.26
2022-08-27T12:01:33.751Z,29.34
2022-08-27T12:02:30.605Z,29.20
2022-08-27T12:03:35.484Z,29.17
2022-08-27T12:04:36.845Z,29.18
2022-08-27T12:05:45.258Z,29.03
2022-08-27T12:06:50.104Z,29.27
2022-08-27T12:07:52.800Z,29.46
2022-08-27T12:08:49.691Z,29.49
2022-08-27T12:09:55.362Z,29.49
2022-08-27T12:10:52.194Z,29.48
2022-08-27T12:11:58.542Z,29.54
2022-08-27T12:13:12.233Z,29.57
2022-08-27T12:14:24.875Z,29.49
2022-08-27T12:15:46.836Z,28.92
2022-08-27T12:16:48.428Z,29.35
2022-08-27T12:17:54.486Z,29.34
2022-08-27T12:19:20.150Z,29.31
2022-08-27T12:20:38.453Z,29.46
2022-08-27T12:21:59.812Z,29.49
2022-08-27T12:23:32.247Z,29.57
2022-08-27T12:24:41.230Z,29.59
2022-08-27T12:25:37.963Z,29.60
2022-08-27T12:26:41.586Z,29.64
2022-08-27T12:27:38.409Z,29.63
2022-08-27T12:28:35.128Z,29.48
2022-08-27T12:29:50.391Z,29.50
2022-08-27T12:30:54.219Z,29.38
2022-08-27T12:31:55.301Z,29.63
2022-08-27T12:32:53.243Z,29.22
2022-08-27T12:33:54.935Z,29.51
2022-08-27T12:35:03.113Z,29.44
2022-08-27T12:36:14.006Z,29.12
2022-08-27T12:37:27.231Z,28.73
2022-08-27T12:38:44.418Z,29.21
2022-08-27T12:39:49.450Z,29.27
2022-08-27T12:40:48.938Z,29.05
2022-08-27T12:41:49.384Z,29.36
2022-08-27T12:42:46.267Z,29.05
2022-08-27T12:43:43.951Z,29.47
2022-08-27T12:44:40.823Z,29.21
2022-08-27T12:45:47.303Z,29.37
2022-08-27T12:46:50.430Z,29.12
2022-08-27T12:47:50.598Z,29.46
2022-08-27T12:48:59.259Z,28.74
2022-08-27T12:50:07.765Z,29.26
2022-08-27T12:51:12.453Z,29.46
2022-08-27T12:52:51.052Z,29.38
2022-08-27T12:54:09.237Z,29.56
2022-08-27T12:55:14.995Z,29.46
2022-08-27T12:56:29.436Z,29.48
2022-08-27T12:57:44.398Z,29.44
2022-08-27T12:58:56.319Z,29.46
2022-08-27T12:59:58.969Z,29.44
2022-08-27T13:00:56.487Z,29.42
2022-08-27T13:02:31.230Z,29.41
2022-08-27T13:03:47.223Z,29.13
2022-08-27T13:04:44.499Z,29.35
2022-08-27T13:05:48.950Z,29.41
2022-08-27T13:06:46.018Z,28.61
2022-08-27T13:08:03.257Z,29.40
2022-08-27T13:09:07.845Z,29.33
2022-08-27T13:10:27.683Z,29.38
2022-08-27T13:11:29.061Z,29.28
2022-08-27T13:12:25.834Z,29.35
2022-08-27T13:13:27.212Z,29.31
2022-08-27T13:14:34.365Z,29.35
2022-08-27T13:15:34.012Z,29.29
2022-08-27T13:16:37.025Z,29.28
2022-08-27T13:17:43.128Z,28.45
2022-08-27T13:18:48.314Z,28.78
2022-08-27T13:20:05.308Z,29.33
2022-08-27T13:21:10.999Z,29.30